createdAt,value
2018-11-21T00:02:15.572Z,100084.74
2018-11-21T00:04:54.818Z,100087.56
2018-11-21T00:07:27.331Z,100088.36
2018-11-21T00:16:07.443Z,100108.75
2018-11-21T00:18:35.510Z,100120.14
2018-11-21T00:21:03.628Z,100129.75
2018-11-21T00:23:31.743Z,100135.36
2018-11-21T00:25:59.819Z,100141.96
2018-11-21T00:28:27.896Z,100142.80
2018-11-21T00:30:55.991Z,100147.94
2018-11-21T00:33:24.067Z,100150.09
2018-11-21T00:35:52.134Z,100153.20
2018-11-21T00:38:20.235Z,100157.84
2018-11-21T00:40:48.367Z,100157.50
2018-11-21T00:43:16.447Z,100160.47
2018-11-21T00:45:44.507Z,100157.66
2018-11-21T00:48:12.639Z,100160.78
2018-11-21T00:50:40.729Z,100153.59
2018-11-21T00:53:08.808Z,100160.72
2018-11-21T00:55:36.883Z,100158.73
2018-11-21T00:58:05.144Z,100160.35
2018-11-21T01:00:33.210Z,100156.81
2018-11-21T01:03:01.316Z,100160.15
2018-11-21T01:05:29.413Z,100158.34
2018-11-21T01:07:57.477Z,100163.13
2018-11-21T01:10:25.527Z,100163.77
2018-11-21T01:12:53.596Z,100170.50
2018-11-21T01:15:21.688Z,100183.17
2018-11-21T01:17:49.789Z,100180.89
2018-11-21T01:20:17.864Z,100184.10
2018-11-21T01:22:45.957Z,100183.94
2018-11-21T01:25:14.030Z,100188.12
2018-11-21T01:27:42.193Z,100193.20
2018-11-21T01:30:10.249Z,100200.77
2018-11-21T01:32:38.760Z,100199.42
2018-11-21T01:35:07.237Z,100206.06
2018-11-21T01:37:35.369Z,100212.34
2018-11-21T01:40:03.602Z,100209.84
2018-11-21T01:42:31.690Z,100214.42
2018-11-21T01:44:59.758Z,100219.44
2018-11-21T01:47:27.806Z,100221.87
2018-11-21T01:49:55.849Z,100224.38
2018-11-21T01:52:23.940Z,100223.57
2018-11-21T01:54:52.022Z,100223.70
2018-11-21T01:57:20.105Z,100225.89
2018-11-21T01:59:48.243Z,100234.14
2018-11-21T02:02:16.301Z,100235.70
2018-11-21T02:04:44.366Z,100233.28
2018-11-21T02:07:12.420Z,100240.40
2018-11-21T02:09:40.927Z,100240.40
2018-11-21T02:12:08.983Z,100248.27
2018-11-21T02:14:37.064Z,100244.95
2018-11-21T02:17:05.280Z,100252.42
2018-11-21T02:19:33.353Z,100251.88
2018-11-21T02:22:01.406Z,100246.37
2018-11-21T02:24:29.512Z,100249.39
2018-11-21T02:26:57.568Z,100256.88
2018-11-21T02:29:25.638Z,100261.31
2018-11-21T02:31:53.725Z,100264.16
2018-11-21T02:34:21.910Z,100263.28
2018-11-21T02:36:49.892Z,100262.17
2018-11-21T02:39:17.945Z,100267.33
2018-11-21T02:41:45.994Z,100270.49
2018-11-21T02:44:14.075Z,100264.85
2018-11-21T02:46:42.177Z,100263.49
2018-11-21T02:49:10.260Z,100257.58
2018-11-21T02:51:38.725Z,100254.23
2018-11-21T02:54:06.796Z,100256.35
2018-11-21T02:57:13.699Z,100257.28
2018-11-21T02:59:41.861Z,100261.44
2018-11-21T03:02:09.929Z,100264.14
2018-11-21T03:04:38.116Z,100257.66
2018-11-21T03:07:06.394Z,100255.45
2018-11-21T03:09:34.898Z,100252.49
2018-11-21T03:12:02.957Z,100259.34
2018-11-21T03:14:31.051Z,100260.42
2018-11-21T03:16:59.136Z,100264.85
2018-11-21T03:19:27.213Z,100272.94
2018-11-21T03:21:55.289Z,100283.13
2018-11-21T03:24:23.383Z,100287.69
2018-11-21T03:26:52.128Z,100300.25
2018-11-21T03:29:20.270Z,100308.13
2018-11-21T03:31:48.354Z,100311.02
2018-11-21T03:34:16.399Z,100310.16
2018-11-21T03:37:03.582Z,100331.69
2018-11-21T03:39:31.663Z,100335.48
2018-11-21T03:41:59.727Z,100351.78
2018-11-21T03:44:27.788Z,100350.69
2018-11-21T03:46:55.871Z,100347.47
2018-11-21T03:49:23.973Z,100342.19
2018-11-21T03:51:52.036Z,100341.66
2018-11-21T03:54:20.132Z,100333.43
2018-11-21T03:56:48.209Z,100322.92
2018-11-21T03:59:16.256Z,100332.37
2018-11-21T04:01:44.317Z,100330.05
2018-11-21T04:04:12.412Z,100329.72
2018-11-21T04:06:40.471Z,100330.36
2018-11-21T04:09:10.219Z,100330.26
2018-11-21T04:11:38.295Z,100332.31
2018-11-21T04:14:06.413Z,100337.39
2018-11-21T04:16:34.484Z,100339.66
2018-11-21T04:19:02.525Z,100338.77
2018-11-21T04:21:30.580Z,100343.25
2018-11-21T04:23:58.651Z,100345.20
2018-11-21T04:26:26.706Z,100348.11
2018-11-21T04:28:54.782Z,100351.02
2018-11-21T04:31:22.841Z,100358.28
2018-11-21T04:33:50.921Z,100363.67
2018-11-21T04:36:18.979Z,100366.08
2018-11-21T04:38:47.108Z,100366.41
2018-11-21T04:41:15.109Z,100362.87
2018-11-21T04:43:43.185Z,100359.22
2018-11-21T04:46:11.249Z,100351.58
2018-11-21T04:48:39.319Z,100346.72
2018-11-21T04:51:07.375Z,100341.48
2018-11-21T04:53:35.492Z,100333.00
2018-11-21T04:56:03.552Z,100333.17
2018-11-21T04:58:31.636Z,100330.94
2018-11-21T05:00:59.692Z,100329.50
2018-11-21T05:03:27.761Z,100334.20
2018-11-21T05:05:55.848Z,100341.00
2018-11-21T05:08:23.907Z,100350.86
2018-11-21T05:10:51.990Z,100364.31
2018-11-21T05:13:20.071Z,100370.09
2018-11-21T05:15:48.110Z,100374.73
2018-11-21T05:18:16.176Z,100380.47
2018-11-21T05:20:44.237Z,100376.45
2018-11-21T05:23:12.289Z,100380.02
2018-11-21T05:25:40.347Z,100390.89
2018-11-21T05:28:08.421Z,100396.66
2018-11-21T05:30:36.477Z,100399.29
2018-11-21T05:33:04.708Z,100404.09
2018-11-21T05:35:32.779Z,100409.20
2018-11-21T05:38:00.839Z,100409.14
2018-11-21T05:40:28.928Z,100409.06
2018-11-21T05:42:57.024Z,100418.11
2018-11-21T05:45:25.078Z,100420.73
2018-11-21T05:47:53.139Z,100415.05
2018-11-21T05:50:21.201Z,100415.73
2018-11-21T05:52:49.286Z,100415.05
2018-11-21T05:55:17.371Z,100411.77
2018-11-21T05:57:45.432Z,100404.38
2018-11-21T06:00:14.157Z,100392.48
2018-11-21T06:02:42.227Z,100392.90
2018-11-21T06:05:11.395Z,100399.55
2018-11-21T06:07:39.605Z,100405.67
2018-11-21T06:10:09.680Z,100414.46
2018-11-21T06:12:38.036Z,100421.05
2018-11-21T06:15:06.624Z,100432.45
2018-11-21T06:17:34.697Z,100439.60
2018-11-21T06:20:02.759Z,100441.27
2018-11-21T06:22:30.872Z,100446.27
2018-11-21T06:24:58.937Z,100440.51
2018-11-21T06:27:26.977Z,100443.34
2018-11-21T06:29:55.048Z,100442.30
2018-11-21T06:32:23.155Z,100445.48
2018-11-21T06:34:51.260Z,100456.46
2018-11-21T06:37:19.298Z,100456.58
2018-11-21T06:39:47.363Z,100468.73
2018-11-21T06:42:15.420Z,100475.20
2018-11-21T06:44:43.502Z,100480.40
2018-11-21T06:47:11.557Z,100479.77
2018-11-21T06:49:39.628Z,100481.87
2018-11-21T06:52:07.786Z,100490.95
2018-11-21T06:54:35.856Z,100495.13
2018-11-21T06:57:03.970Z,100507.97
2018-11-21T06:59:32.022Z,100507.06
2018-11-21T07:02:00.097Z,100513.98
2018-11-21T07:04:28.169Z,100518.58
2018-11-21T07:06:56.237Z,100526.29
2018-11-21T07:09:24.297Z,100530.23
2018-11-21T07:11:52.361Z,100535.71
2018-11-21T07:14:20.427Z,100540.08
2018-11-21T07:16:48.498Z,100545.00
2018-11-21T07:19:16.556Z,100534.98
2018-11-21T07:21:44.658Z,100541.94
2018-11-21T07:24:12.723Z,100533.48
2018-11-21T07:26:40.783Z,100535.25
2018-11-21T07:29:08.925Z,100552.37
2018-11-21T07:31:37.000Z,100560.03
2018-11-21T07:34:05.398Z,100562.88
2018-11-21T07:36:33.864Z,100559.70
2018-11-21T07:39:01.957Z,100561.23
2018-11-21T07:41:30.058Z,100560.66
2018-11-21T07:43:58.147Z,100554.16
2018-11-21T07:46:26.244Z,100554.27
2018-11-21T07:48:54.303Z,100548.20
2018-11-21T07:51:22.416Z,100548.98
2018-11-21T07:53:50.509Z,100548.20
2018-11-21T07:56:58.586Z,100563.72
2018-11-21T08:00:05.502Z,100572.16
2018-11-21T08:02:37.023Z,100572.75
2018-11-21T08:05:11.118Z,100570.73
2018-11-21T08:10:52.409Z,100577.13
2018-11-21T08:13:36.618Z,100585.20
2018-11-21T08:16:23.951Z,100583.41
2018-11-21T08:19:11.151Z,100581.07
2018-11-21T08:21:58.357Z,100590.43
2018-11-21T08:24:37.569Z,100592.23
2018-11-21T08:27:24.774Z,100592.90
2018-11-21T08:29:52.834Z,100588.66
2018-11-21T08:32:20.916Z,100594.81
2018-11-21T08:34:49.000Z,100603.11
2018-11-21T08:37:17.093Z,100607.91
2018-11-21T08:39:45.177Z,100607.88
2018-11-21T08:42:13.249Z,100604.66
2018-11-21T08:47:36.899Z,100615.08
2018-11-21T08:50:07.852Z,100611.62
2018-11-21T08:52:35.952Z,100616.13
2018-11-21T08:55:08.911Z,100609.58
2018-11-21T08:57:32.599Z,100604.66
2018-11-21T09:00:00.668Z,100614.39
2018-11-21T09:02:28.768Z,100605.62
2018-11-21T09:04:56.885Z,100600.92
2018-11-21T09:07:24.977Z,100600.91
2018-11-21T09:09:53.060Z,100600.27
2018-11-21T09:12:21.136Z,100598.80
2018-11-21T09:14:49.244Z,100600.38
2018-11-21T09:17:17.334Z,100599.06
2018-11-21T09:19:45.453Z,100596.95
2018-11-21T09:22:13.574Z,100608.84
2018-11-21T09:24:41.671Z,100619.20
2018-11-21T09:27:09.750Z,100624.08
2018-11-21T09:29:37.884Z,100619.52
2018-11-21T09:32:06.042Z,100616.14
2018-11-21T09:34:34.214Z,100608.05
2018-11-21T09:37:02.389Z,100605.13
2018-11-21T09:39:30.482Z,100608.62
2018-11-21T09:41:58.555Z,100604.88
2018-11-21T09:44:26.652Z,100600.42
2018-11-21T09:46:54.746Z,100600.63
2018-11-21T09:49:22.853Z,100597.19
2018-11-21T09:51:50.928Z,100596.12
2018-11-21T09:54:19.045Z,100603.66
2018-11-21T09:56:47.116Z,100609.28
2018-11-21T09:59:15.188Z,100606.28
2018-11-21T10:02:28.190Z,100612.34
2018-11-21T10:04:56.313Z,100618.39
2018-11-21T10:07:24.396Z,100629.27
2018-11-21T10:09:52.794Z,100631.56
2018-11-21T10:12:20.883Z,100626.79
2018-11-21T10:14:48.966Z,100632.56
2018-11-21T10:17:17.043Z,100635.01
2018-11-21T10:19:45.132Z,100637.82
2018-11-21T10:22:13.206Z,100635.01
2018-11-21T10:24:41.314Z,100643.84
2018-11-21T10:27:09.406Z,100649.81
2018-11-21T10:29:37.497Z,100646.64
2018-11-21T10:32:05.681Z,100654.03
2018-11-21T10:34:33.933Z,100652.83
2018-11-21T10:37:01.911Z,100658.00
2018-11-21T10:39:29.988Z,100660.97
2018-11-21T10:41:58.073Z,100660.05
2018-11-21T10:44:26.143Z,100662.53
2018-11-21T10:46:54.226Z,100658.88
2018-11-21T10:49:22.306Z,100662.24
2018-11-21T10:51:50.396Z,100658.75
2018-11-21T10:54:18.480Z,100662.05
2018-11-21T10:56:46.795Z,100663.44
2018-11-21T10:59:14.951Z,100661.34
2018-11-21T11:19:59.901Z,100650.39
2018-11-21T11:22:47.106Z,100654.98
2018-11-21T11:28:37.628Z,100654.30
2018-11-21T11:40:27.096Z,100646.38
2018-11-21T11:43:14.291Z,100642.80
2018-11-21T11:46:01.501Z,100645.09
2018-11-21T11:48:39.413Z,100648.30
2018-11-21T11:51:26.651Z,100650.13
2018-11-21T11:54:13.832Z,100646.48
2018-11-21T11:57:02.702Z,100644.25
2018-11-21T11:59:49.901Z,100643.09
2018-11-21T12:02:37.140Z,100647.00
2018-11-21T12:05:25.773Z,100644.19
2018-11-21T12:08:14.481Z,100640.56
2018-11-21T12:11:01.663Z,100647.42
2018-11-21T12:13:48.872Z,100642.95
2018-11-21T12:16:36.171Z,100638.11
2018-11-21T12:19:23.385Z,100636.17
2018-11-21T12:22:10.618Z,100635.01
2018-11-21T12:24:57.815Z,100635.91
2018-11-21T12:27:45.023Z,100635.03
2018-11-21T12:33:28.727Z,100629.70
2018-11-21T12:39:00.363Z,100636.59
2018-11-21T12:41:47.552Z,100634.51
2018-11-21T12:47:27.424Z,100621.47
2018-11-21T12:50:14.611Z,100626.09
2018-11-21T12:53:01.830Z,100633.97
2018-11-21T12:55:49.118Z,100630.64
2018-11-21T12:58:36.256Z,100627.50
2018-11-21T13:01:23.445Z,100630.16
2018-11-21T13:04:10.652Z,100636.59
2018-11-21T13:06:57.834Z,100632.62
2018-11-21T13:09:45.072Z,100639.58
2018-11-21T13:12:32.270Z,100634.95
2018-11-21T13:15:43.471Z,100635.88
2018-11-21T13:18:21.371Z,100631.30
2018-11-21T13:21:08.550Z,100635.08
2018-11-21T13:23:55.755Z,100633.92
2018-11-21T13:26:42.931Z,100633.64
2018-11-21T13:29:30.135Z,100636.57
2018-11-21T13:32:10.782Z,100641.04
2018-11-21T13:34:48.920Z,100653.78
2018-11-21T13:37:36.153Z,100649.44
2018-11-21T13:43:33.565Z,100656.77
2018-11-21T13:46:28.962Z,100658.92
2018-11-21T13:49:17.437Z,100656.47
2018-11-21T13:54:51.687Z,100661.55
2018-11-21T14:00:43.665Z,100671.54
2018-11-21T14:03:14.651Z,100664.91
2018-11-21T14:06:03.451Z,100676.27
2018-11-21T14:08:31.506Z,100670.02
2018-11-21T14:10:59.597Z,100675.11
2018-11-21T14:13:27.652Z,100669.45
2018-11-21T14:15:55.809Z,100672.89
2018-11-21T14:18:23.915Z,100673.33
2018-11-21T14:20:52.000Z,100676.17
2018-11-21T14:23:20.075Z,100680.66
2018-11-21T14:25:48.167Z,100684.42
2018-11-21T14:28:16.226Z,100670.94
2018-11-21T14:30:44.295Z,100680.38
2018-11-21T14:33:12.357Z,100681.38
2018-11-21T14:35:40.435Z,100684.39
2018-11-21T14:38:08.500Z,100684.45
2018-11-21T14:40:36.587Z,100693.08
2018-11-21T14:43:04.682Z,100693.99
2018-11-21T14:45:32.750Z,100697.87
2018-11-21T14:48:00.844Z,100702.63
2018-11-21T14:50:30.964Z,100701.84
2018-11-21T14:52:59.034Z,100710.52
2018-11-21T14:55:27.199Z,100716.89
2018-11-21T14:57:55.249Z,100719.05
2018-11-21T15:00:23.633Z,100722.03
2018-11-21T15:02:51.688Z,100729.30
2018-11-21T15:05:19.763Z,100728.84
2018-11-21T15:07:48.098Z,100736.28
2018-11-21T15:10:16.205Z,100731.02
2018-11-21T15:12:44.289Z,100742.23
2018-11-21T15:15:14.790Z,100744.04
2018-11-21T15:17:42.881Z,100749.48
2018-11-21T15:20:13.401Z,100742.27
2018-11-21T15:22:41.464Z,100751.29
2018-11-21T15:25:11.884Z,100748.13
2018-11-21T15:27:40.248Z,100750.34
2018-11-21T15:30:28.963Z,100743.11
2018-11-21T15:32:57.064Z,100747.38
2018-11-21T15:35:25.253Z,100756.41
2018-11-21T15:37:53.351Z,100763.08
2018-11-21T15:40:22.663Z,100754.24
2018-11-21T15:42:50.881Z,100761.11
2018-11-21T15:45:20.403Z,100752.27
2018-11-21T15:48:08.013Z,100755.05
2018-11-21T15:50:36.044Z,100760.83
2018-11-21T15:53:04.130Z,100754.84
2018-11-21T15:55:32.203Z,100758.66
2018-11-21T15:58:00.277Z,100760.87
2018-11-21T16:00:29.932Z,100757.62
2018-11-21T16:03:00.366Z,100753.77
2018-11-21T16:05:28.408Z,100763.08
2018-11-21T16:07:57.538Z,100764.08
2018-11-21T16:10:26.200Z,100775.66
2018-11-21T16:12:54.283Z,100777.84
2018-11-21T16:15:24.600Z,100772.15
2018-11-21T16:17:52.676Z,100777.38
2018-11-21T16:20:20.953Z,100782.83
2018-11-21T16:22:49.071Z,100788.70
2018-11-21T16:25:18.638Z,100795.56
2018-11-21T16:27:46.780Z,100793.39
2018-11-21T16:30:19.498Z,100792.06
2018-11-21T16:33:07.184Z,100800.78
2018-11-21T16:35:35.418Z,100798.58
2018-11-21T16:38:03.716Z,100801.67
2018-11-21T16:40:32.921Z,100799.42
2018-11-21T16:43:01.432Z,100807.78
2018-11-21T16:48:24.629Z,100803.69
2018-11-21T16:50:52.721Z,100806.52
2018-11-21T16:53:40.075Z,100818.73
2018-11-21T16:56:08.608Z,100820.06
2018-11-21T16:58:37.230Z,100822.95
2018-11-21T17:01:05.565Z,100825.45
2018-11-21T17:03:33.680Z,100827.42
2018-11-21T17:06:01.790Z,100825.89
2018-11-21T17:08:30.395Z,100827.57
2018-11-21T17:10:58.477Z,100818.05
2018-11-21T17:13:26.575Z,100819.98
2018-11-21T17:15:55.520Z,100823.50
2018-11-21T17:18:23.633Z,100821.27
2018-11-21T17:20:54.508Z,100815.69
2018-11-21T17:23:23.033Z,100822.11
2018-11-21T17:25:51.240Z,100824.28
2018-11-21T17:28:19.767Z,100820.75
2018-11-21T17:30:48.061Z,100822.88
2018-11-21T17:33:16.190Z,100826.22
2018-11-21T17:38:41.016Z,100827.70
2018-11-21T17:41:09.138Z,100828.83
2018-11-21T17:43:39.290Z,100829.79
2018-11-21T17:46:07.891Z,100823.08
2018-11-21T17:48:38.790Z,100823.80
2018-11-21T17:54:03.004Z,100829.31
2018-11-21T17:56:31.448Z,100824.84
2018-11-21T17:59:02.926Z,100832.36
2018-11-21T18:01:32.676Z,100835.38
2018-11-21T18:07:05.973Z,100829.79
2018-11-21T18:12:08.153Z,100836.50
2018-11-21T18:14:36.761Z,100840.80
2018-11-21T18:17:04.821Z,100838.39
2018-11-21T18:19:32.948Z,100837.37
2018-11-21T18:22:01.039Z,100838.59
2018-11-21T18:24:29.314Z,100844.13
2018-11-21T18:26:58.080Z,100847.98
2018-11-21T18:29:26.172Z,100846.45
2018-11-21T18:31:54.641Z,100847.66
2018-11-21T18:34:25.426Z,100846.97
2018-11-21T18:36:53.494Z,100847.81
2018-11-21T18:39:21.564Z,100850.63
2018-11-21T18:41:49.633Z,100848.34
2018-11-21T18:44:17.910Z,100859.55
2018-11-21T18:46:45.962Z,100861.00
2018-11-21T18:49:14.109Z,100863.38
2018-11-21T18:51:42.282Z,100864.54
2018-11-21T18:54:10.440Z,100855.04
2018-11-21T19:02:36.720Z,100866.79
2018-11-21T19:05:06.006Z,100875.72
2018-11-21T19:10:30.238Z,100871.45
2018-11-21T19:12:58.611Z,100877.36
2018-11-21T19:15:27.031Z,100876.67
2018-11-21T19:17:55.341Z,100875.27
2018-11-21T19:20:23.731Z,100873.98
2018-11-21T19:22:52.064Z,100875.19
2018-11-21T19:25:20.482Z,100875.19
2018-11-21T19:27:48.837Z,100879.01
2018-11-21T19:30:20.011Z,100879.52
2018-11-21T19:32:49.485Z,100876.11
2018-11-21T19:35:26.635Z,100883.27
2018-11-21T19:56:12.566Z,100876.63
2018-11-21T19:58:54.159Z,100880.17
2018-11-21T20:43:32.104Z,100880.83
2018-11-21T20:55:52.272Z,100874.45
2018-11-21T20:58:45.869Z,100881.08
2018-11-21T21:04:23.720Z,100885.33
2018-11-21T21:10:04.709Z,100882.45
2018-11-21T21:28:14.166Z,100885.67
2018-11-21T21:30:59.234Z,100889.70
2018-11-21T21:33:52.254Z,100889.02
2018-11-21T21:36:41.274Z,100893.03
2018-11-21T21:42:41.754Z,100887.84
2018-11-21T21:45:38.307Z,100887.00
2018-11-21T21:54:16.315Z,100888.84
2018-11-21T21:57:07.765Z,100884.61
2018-11-21T22:12:29.310Z,100881.48
2018-11-21T22:33:14.897Z,100887.64
2018-11-21T22:47:16.945Z,100892.89
2018-11-21T22:59:02.310Z,100895.16
2018-11-21T23:01:43.819Z,100896.58
2018-11-21T23:18:49.639Z,100897.87
2018-11-21T23:57:40.258Z,100897.30
